sensor_id;sensor_type;location;lat;lon;timestamp;P1;durP1;ratioP1;P2;durP2;ratioP2
18879;SDS011;9572;52.378;13.404;2023-12-07T00:02:21;20.57;;;11.83;;
18879;SDS011;9572;52.378;13.404;2023-12-07T00:04:48;20.90;;;11.97;;
18879;SDS011;9572;52.378;13.404;2023-12-07T00:07:15;18.47;;;11.50;;
18879;SDS011;9572;52.378;13.404;2023-12-07T00:09:42;18.27;;;11.13;;
18879;SDS011;9572;52.378;13.404;2023-12-07T00:12:09;21.07;;;11.33;;
18879;SDS011;9572;52.378;13.404;2023-12-07T00:14:36;18.30;;;10.87;;
18879;SDS011;9572;52.378;13.404;2023-12-07T00:17:05;18.10;;;11.20;;
18879;SDS011;9572;52.378;13.404;2023-12-07T00:19:31;20.90;;;11.50;;
18879;SDS011;9572;52.378;13.404;2023-12-07T00:21:59;19.30;;;12.07;;
18879;SDS011;9572;52.378;13.404;2023-12-07T00:24:26;20.23;;;12.10;;
18879;SDS011;9572;52.378;13.404;2023-12-07T00:26:52;20.10;;;11.47;;
18879;SDS011;9572;52.378;13.404;2023-12-07T00:29:19;18.13;;;11.53;;
18879;SDS011;9572;52.378;13.404;2023-12-07T00:31:46;19.80;;;10.97;;
18879;SDS011;9572;52.378;13.404;2023-12-07T00:34:15;20.23;;;12.03;;
18879;SDS011;9572;52.378;13.404;2023-12-07T00:36:43;21.03;;;12.00;;
18879;SDS011;9572;52.378;13.404;2023-12-07T00:39:10;18.67;;;11.77;;
18879;SDS011;9572;52.378;13.404;2023-12-07T00:41:38;21.30;;;11.97;;
18879;SDS011;9572;52.378;13.404;2023-12-07T00:44:05;21.27;;;12.73;;
18879;SDS011;9572;52.378;13.404;2023-12-07T00:46:32;19.43;;;11.90;;
18879;SDS011;9572;52.378;13.404;2023-12-07T00:48:59;19.83;;;11.97;;
18879;SDS011;9572;52.378;13.404;2023-12-07T00:51:27;22.00;;;12.27;;
18879;SDS011;9572;52.378;13.404;2023-12-07T00:53:54;19.47;;;12.37;;
18879;SDS011;9572;52.378;13.404;2023-12-07T00:56:21;21.97;;;13.30;;
18879;SDS011;9572;52.378;13.404;2023-12-07T00:58:48;22.03;;;13.30;;
18879;SDS011;9572;52.378;13.404;2023-12-07T01:01:15;18.83;;;11.80;;
18879;SDS011;9572;52.378;13.404;2023-12-07T01:03:42;20.47;;;12.20;;
18879;SDS011;9572;52.378;13.404;2023-12-07T01:06:09;23.03;;;12.77;;
18879;SDS011;9572;52.378;13.404;2023-12-07T01:08:38;22.00;;;12.67;;
18879;SDS011;9572;52.378;13.404;2023-12-07T01:11:05;24.40;;;13.70;;
18879;SDS011;9572;52.378;13.404;2023-12-07T01:13:32;19.20;;;11.67;;
18879;SDS011;9572;52.378;13.404;2023-12-07T01:16:01;20.27;;;12.30;;
18879;SDS011;9572;52.378;13.404;2023-12-07T01:18:28;22.67;;;12.80;;
18879;SDS011;9572;52.378;13.404;2023-12-07T01:20:54;19.30;;;12.07;;
18879;SDS011;9572;52.378;13.404;2023-12-07T01:23:21;21.67;;;13.13;;
18879;SDS011;9572;52.378;13.404;2023-12-07T01:25:50;21.67;;;12.47;;
18879;SDS011;9572;52.378;13.404;2023-12-07T01:28:16;17.93;;;11.50;;
18879;SDS011;9572;52.378;13.404;2023-12-07T01:30:43;19.57;;;12.50;;
18879;SDS011;9572;52.378;13.404;2023-12-07T01:33:10;20.73;;;12.90;;
18879;SDS011;9572;52.378;13.404;2023-12-07T01:35:38;23.40;;;13.43;;
18879;SDS011;9572;52.378;13.404;2023-12-07T01:38:05;20.23;;;11.93;;
18879;SDS011;9572;52.378;13.404;2023-12-07T01:40:32;22.10;;;13.30;;
18879;SDS011;9572;52.378;13.404;2023-12-07T01:45:59;21.43;;;12.87;;
18879;SDS011;9572;52.378;13.404;2023-12-07T01:48:27;23.80;;;12.93;;
18879;SDS011;9572;52.378;13.404;2023-12-07T01:50:55;20.80;;;12.50;;
18879;SDS011;9572;52.378;13.404;2023-12-07T01:53:23;20.97;;;12.47;;
18879;SDS011;9572;52.378;13.404;2023-12-07T01:55:52;20.77;;;12.50;;
18879;SDS011;9572;52.378;13.404;2023-12-07T01:58:20;20.70;;;12.63;;
18879;SDS011;9572;52.378;13.404;2023-12-07T02:00:54;23.63;;;13.27;;
18879;SDS011;9572;52.378;13.404;2023-12-07T02:03:21;22.10;;;13.03;;
18879;SDS011;9572;52.378;13.404;2023-12-07T02:05:49;21.97;;;12.53;;
18879;SDS011;9572;52.378;13.404;2023-12-07T02:08:17;19.53;;;12.37;;
18879;SDS011;9572;52.378;13.404;2023-12-07T02:10:44;20.73;;;12.97;;
18879;SDS011;9572;52.378;13.404;2023-12-07T02:13:11;20.07;;;12.80;;
18879;SDS011;9572;52.378;13.404;2023-12-07T02:15:38;18.10;;;11.73;;
18879;SDS011;9572;52.378;13.404;2023-12-07T02:18:10;20.23;;;12.23;;
18879;SDS011;9572;52.378;13.404;2023-12-07T02:20:45;21.57;;;13.13;;
18879;SDS011;9572;52.378;13.404;2023-12-07T02:23:18;18.30;;;11.90;;
18879;SDS011;9572;52.378;13.404;2023-12-07T02:25:47;20.30;;;11.73;;
18879;SDS011;9572;52.378;13.404;2023-12-07T02:28:19;20.50;;;12.07;;
18879;SDS011;9572;52.378;13.404;2023-12-07T02:30:46;20.83;;;12.73;;
18879;SDS011;9572;52.378;13.404;2023-12-07T02:33:13;20.23;;;12.50;;
18879;SDS011;9572;52.378;13.404;2023-12-07T02:35:40;19.60;;;12.30;;
18879;SDS011;9572;52.378;13.404;2023-12-07T02:38:09;18.93;;;11.70;;
18879;SDS011;9572;52.378;13.404;2023-12-07T02:40:36;20.83;;;12.33;;
18879;SDS011;9572;52.378;13.404;2023-12-07T02:43:05;19.07;;;11.47;;
18879;SDS011;9572;52.378;13.404;2023-12-07T02:45:34;21.03;;;12.17;;
18879;SDS011;9572;52.378;13.404;2023-12-07T02:48:01;19.97;;;12.23;;
18879;SDS011;9572;52.378;13.404;2023-12-07T02:50:28;20.77;;;13.43;;
18879;SDS011;9572;52.378;13.404;2023-12-07T02:52:55;17.80;;;12.20;;
18879;SDS011;9572;52.378;13.404;2023-12-07T02:55:22;19.23;;;12.00;;
18879;SDS011;9572;52.378;13.404;2023-12-07T02:57:49;20.23;;;12.07;;
18879;SDS011;9572;52.378;13.404;2023-12-07T03:00:16;20.90;;;12.03;;
18879;SDS011;9572;52.378;13.404;2023-12-07T03:02:45;20.50;;;12.43;;
18879;SDS011;9572;52.378;13.404;2023-12-07T03:05:13;22.17;;;13.30;;
18879;SDS011;9572;52.378;13.404;2023-12-07T03:07:40;20.80;;;12.67;;
18879;SDS011;9572;52.378;13.404;2023-12-07T03:10:07;23.70;;;12.27;;
18879;SDS011;9572;52.378;13.404;2023-12-07T03:12:34;20.43;;;12.17;;
18879;SDS011;9572;52.378;13.404;2023-12-07T03:15:01;23.03;;;13.27;;
18879;SDS011;9572;52.378;13.404;2023-12-07T03:17:29;22.47;;;13.03;;
18879;SDS011;9572;52.378;13.404;2023-12-07T03:19:58;20.33;;;12.77;;
18879;SDS011;9572;52.378;13.404;2023-12-07T03:22:24;23.40;;;14.33;;
18879;SDS011;9572;52.378;13.404;2023-12-07T03:24:52;23.10;;;13.73;;
18879;SDS011;9572;52.378;13.404;2023-12-07T03:27:19;21.97;;;13.70;;
18879;SDS011;9572;52.378;13.404;2023-12-07T03:29:46;22.67;;;13.53;;
18879;SDS011;9572;52.378;13.404;2023-12-07T03:32:13;21.27;;;12.50;;
18879;SDS011;9572;52.378;13.404;2023-12-07T03:34:40;21.33;;;13.37;;
18879;SDS011;9572;52.378;13.404;2023-12-07T03:37:08;23.13;;;13.93;;
18879;SDS011;9572;52.378;13.404;2023-12-07T03:39:35;22.17;;;12.93;;
18879;SDS011;9572;52.378;13.404;2023-12-07T03:42:02;19.87;;;11.97;;
18879;SDS011;9572;52.378;13.404;2023-12-07T03:44:29;22.53;;;13.17;;
18879;SDS011;9572;52.378;13.404;2023-12-07T03:46:56;21.67;;;12.80;;
18879;SDS011;9572;52.378;13.404;2023-12-07T03:49:23;20.77;;;11.80;;
18879;SDS011;9572;52.378;13.404;2023-12-07T03:51:50;23.47;;;13.53;;
18879;SDS011;9572;52.378;13.404;2023-12-07T03:54:18;24.30;;;13.43;;
18879;SDS011;9572;52.378;13.404;2023-12-07T03:56:45;23.70;;;13.87;;
18879;SDS011;9572;52.378;13.404;2023-12-07T03:59:12;23.97;;;13.47;;
18879;SDS011;9572;52.378;13.404;2023-12-07T04:01:40;25.97;;;14.10;;
18879;SDS011;9572;52.378;13.404;2023-12-07T04:04:07;21.60;;;12.90;;
18879;SDS011;9572;52.378;13.404;2023-12-07T04:06:34;22.63;;;12.70;;
18879;SDS011;9572;52.378;13.404;2023-12-07T04:09:00;19.43;;;11.97;;
18879;SDS011;9572;52.378;13.404;2023-12-07T04:11:30;22.20;;;13.23;;
18879;SDS011;9572;52.378;13.404;2023-12-07T04:13:57;27.20;;;14.30;;
18879;SDS011;9572;52.378;13.404;2023-12-07T04:16:24;24.07;;;14.07;;
18879;SDS011;9572;52.378;13.404;2023-12-07T04:18:51;23.37;;;14.83;;
18879;SDS011;9572;52.378;13.404;2023-12-07T04:21:18;24.70;;;13.57;;
18879;SDS011;9572;52.378;13.404;2023-12-07T04:23:45;23.07;;;13.97;;
18879;SDS011;9572;52.378;13.404;2023-12-07T04:26:12;23.80;;;13.20;;
18879;SDS011;9572;52.378;13.404;2023-12-07T04:28:42;23.53;;;13.43;;
18879;SDS011;9572;52.378;13.404;2023-12-07T04:31:08;30.50;;;15.37;;
18879;SDS011;9572;52.378;13.404;2023-12-07T04:33:35;25.17;;;13.60;;
18879;SDS011;9572;52.378;13.404;2023-12-07T04:36:02;23.77;;;13.47;;
18879;SDS011;9572;52.378;13.404;2023-12-07T04:38:30;25.23;;;14.00;;
18879;SDS011;9572;52.378;13.404;2023-12-07T04:40:57;26.43;;;14.03;;
18879;SDS011;9572;52.378;13.404;2023-12-07T04:43:24;22.13;;;13.50;;
18879;SDS011;9572;52.378;13.404;2023-12-07T04:45:52;20.87;;;12.87;;
18879;SDS011;9572;52.378;13.404;2023-12-07T04:48:19;28.03;;;15.07;;
18879;SDS011;9572;52.378;13.404;2023-12-07T04:50:46;24.43;;;13.47;;
18879;SDS011;9572;52.378;13.404;2023-12-07T04:53:13;25.00;;;13.93;;
18879;SDS011;9572;52.378;13.404;2023-12-07T04:55:40;22.20;;;13.43;;
18879;SDS011;9572;52.378;13.404;2023-12-07T04:58:11;24.47;;;13.83;;
18879;SDS011;9572;52.378;13.404;2023-12-07T05:00:38;26.80;;;14.20;;
18879;SDS011;9572;52.378;13.404;2023-12-07T05:03:06;26.60;;;15.17;;
18879;SDS011;9572;52.378;13.404;2023-12-07T05:05:34;30.73;;;16.23;;
18879;SDS011;9572;52.378;13.404;2023-12-07T05:08:01;30.37;;;16.10;;
18879;SDS011;9572;52.378;13.404;2023-12-07T05:10:29;24.40;;;14.37;;
18879;SDS011;9572;52.378;13.404;2023-12-07T05:12:56;33.57;;;16.10;;
18879;SDS011;9572;52.378;13.404;2023-12-07T05:15:23;30.73;;;16.53;;
18879;SDS011;9572;52.378;13.404;2023-12-07T05:17:50;27.10;;;15.17;;
18879;SDS011;9572;52.378;13.404;2023-12-07T05:20:19;25.43;;;14.90;;
18879;SDS011;9572;52.378;13.404;2023-12-07T05:22:47;26.70;;;13.97;;
18879;SDS011;9572;52.378;13.404;2023-12-07T05:25:14;24.03;;;13.83;;
18879;SDS011;9572;52.378;13.404;2023-12-07T05:27:41;24.50;;;14.03;;
18879;SDS011;9572;52.378;13.404;2023-12-07T05:30:09;27.63;;;15.90;;
18879;SDS011;9572;52.378;13.404;2023-12-07T05:32:37;23.80;;;14.33;;
18879;SDS011;9572;52.378;13.404;2023-12-07T05:35:04;28.30;;;15.87;;
18879;SDS011;9572;52.378;13.404;2023-12-07T05:37:33;27.00;;;14.67;;
18879;SDS011;9572;52.378;13.404;2023-12-07T05:40:00;24.77;;;14.00;;
18879;SDS011;9572;52.378;13.404;2023-12-07T05:42:27;24.53;;;14.07;;
18879;SDS011;9572;52.378;13.404;2023-12-07T05:44:54;26.50;;;15.07;;
18879;SDS011;9572;52.378;13.404;2023-12-07T05:47:21;25.80;;;15.17;;
18879;SDS011;9572;52.378;13.404;2023-12-07T05:49:49;28.37;;;14.37;;
18879;SDS011;9572;52.378;13.404;2023-12-07T05:52:16;25.03;;;14.00;;
18879;SDS011;9572;52.378;13.404;2023-12-07T05:54:45;23.10;;;13.97;;
18879;SDS011;9572;52.378;13.404;2023-12-07T05:57:13;27.07;;;15.27;;
18879;SDS011;9572;52.378;13.404;2023-12-07T05:59:40;30.40;;;16.93;;
18879;SDS011;9572;52.378;13.404;2023-12-07T06:02:08;31.20;;;16.70;;
18879;SDS011;9572;52.378;13.404;2023-12-07T06:04:35;31.37;;;16.83;;
18879;SDS011;9572;52.378;13.404;2023-12-07T06:07:02;30.50;;;16.67;;
18879;SDS011;9572;52.378;13.404;2023-12-07T06:09:29;27.33;;;15.50;;
18879;SDS011;9572;52.378;13.404;2023-12-07T06:11:58;28.07;;;16.00;;
18879;SDS011;9572;52.378;13.404;2023-12-07T06:14:25;25.50;;;14.50;;
18879;SDS011;9572;52.378;13.404;2023-12-07T06:16:51;28.70;;;16.20;;
18879;SDS011;9572;52.378;13.404;2023-12-07T06:19:18;24.90;;;14.13;;
18879;SDS011;9572;52.378;13.404;2023-12-07T06:21:46;24.70;;;14.70;;
18879;SDS011;9572;52.378;13.404;2023-12-07T06:24:13;31.57;;;15.73;;
18879;SDS011;9572;52.378;13.404;2023-12-07T06:26:40;29.73;;;16.33;;
18879;SDS011;9572;52.378;13.404;2023-12-07T06:29:08;34.17;;;17.40;;
18879;SDS011;9572;52.378;13.404;2023-12-07T06:31:35;28.50;;;16.03;;
18879;SDS011;9572;52.378;13.404;2023-12-07T06:34:02;28.37;;;16.40;;
18879;SDS011;9572;52.378;13.404;2023-12-07T06:36:29;30.50;;;16.73;;
18879;SDS011;9572;52.378;13.404;2023-12-07T06:38:56;29.43;;;16.90;;
18879;SDS011;9572;52.378;13.404;2023-12-07T06:41:24;30.80;;;17.53;;
18879;SDS011;9572;52.378;13.404;2023-12-07T06:43:51;33.20;;;18.13;;
18879;SDS011;9572;52.378;13.404;2023-12-07T06:46:19;30.63;;;18.00;;
18879;SDS011;9572;52.378;13.404;2023-12-07T06:48:46;35.03;;;17.70;;
18879;SDS011;9572;52.378;13.404;2023-12-07T06:51:13;33.47;;;17.73;;
18879;SDS011;9572;52.378;13.404;2023-12-07T06:53:40;31.50;;;17.37;;
18879;SDS011;9572;52.378;13.404;2023-12-07T06:56:08;31.27;;;16.70;;
18879;SDS011;9572;52.378;13.404;2023-12-07T06:58:35;31.20;;;17.40;;
18879;SDS011;9572;52.378;13.404;2023-12-07T07:01:02;35.33;;;18.20;;
18879;SDS011;9572;52.378;13.404;2023-12-07T07:03:31;33.03;;;17.70;;
18879;SDS011;9572;52.378;13.404;2023-12-07T07:06:00;29.67;;;16.13;;
18879;SDS011;9572;52.378;13.404;2023-12-07T07:08:27;29.73;;;16.90;;
18879;SDS011;9572;52.378;13.404;2023-12-07T07:10:54;28.63;;;16.07;;
18879;SDS011;9572;52.378;13.404;2023-12-07T07:13:21;29.43;;;15.40;;
18879;SDS011;9572;52.378;13.404;2023-12-07T07:15:48;30.33;;;16.53;;
18879;SDS011;9572;52.378;13.404;2023-12-07T07:18:15;29.60;;;16.00;;
18879;SDS011;9572;52.378;13.404;2023-12-07T07:20:43;32.57;;;17.03;;
18879;SDS011;9572;52.378;13.404;2023-12-07T07:23:12;28.47;;;16.20;;
18879;SDS011;9572;52.378;13.404;2023-12-07T07:25:39;29.17;;;16.33;;
18879;SDS011;9572;52.378;13.404;2023-12-07T07:28:06;31.93;;;17.27;;
18879;SDS011;9572;52.378;13.404;2023-12-07T07:30:33;34.97;;;18.30;;
18879;SDS011;9572;52.378;13.404;2023-12-07T07:33:10;31.70;;;17.57;;
18879;SDS011;9572;52.378;13.404;2023-12-07T07:35:37;33.23;;;18.03;;
18879;SDS011;9572;52.378;13.404;2023-12-07T07:38:05;36.07;;;18.63;;
18879;SDS011;9572;52.378;13.404;2023-12-07T07:40:32;35.43;;;18.47;;
18879;SDS011;9572;52.378;13.404;2023-12-07T07:43:01;37.63;;;19.13;;
18879;SDS011;9572;52.378;13.404;2023-12-07T07:45:28;39.77;;;18.47;;
18879;SDS011;9572;52.378;13.404;2023-12-07T07:47:54;33.10;;;18.07;;
18879;SDS011;9572;52.378;13.404;2023-12-07T07:50:21;37.53;;;19.10;;
18879;SDS011;9572;52.378;13.404;2023-12-07T07:52:48;37.30;;;18.80;;
18879;SDS011;9572;52.378;13.404;2023-12-07T07:55:17;37.10;;;20.40;;
18879;SDS011;9572;52.378;13.404;2023-12-07T07:57:44;34.40;;;17.53;;
18879;SDS011;9572;52.378;13.404;2023-12-07T08:00:11;43.97;;;20.37;;
18879;SDS011;9572;52.378;13.404;2023-12-07T08:02:39;35.77;;;18.07;;
18879;SDS011;9572;52.378;13.404;2023-12-07T08:05:06;36.57;;;18.13;;
18879;SDS011;9572;52.378;13.404;2023-12-07T08:07:34;39.33;;;17.53;;
18879;SDS011;9572;52.378;13.404;2023-12-07T08:10:01;31.10;;;16.57;;
18879;SDS011;9572;52.378;13.404;2023-12-07T08:12:30;32.87;;;17.03;;
18879;SDS011;9572;52.378;13.404;2023-12-07T08:14:58;37.80;;;17.30;;
18879;SDS011;9572;52.378;13.404;2023-12-07T08:17:25;40.23;;;18.97;;
18879;SDS011;9572;52.378;13.404;2023-12-07T08:19:53;34.23;;;17.73;;
18879;SDS011;9572;52.378;13.404;2023-12-07T08:22:20;40.47;;;20.03;;
18879;SDS011;9572;52.378;13.404;2023-12-07T08:24:47;39.67;;;20.03;;
18879;SDS011;9572;52.378;13.404;2023-12-07T08:27:14;37.23;;;19.07;;
18879;SDS011;9572;52.378;13.404;2023-12-07T08:29:44;33.40;;;18.10;;
18879;SDS011;9572;52.378;13.404;2023-12-07T08:32:11;37.17;;;19.27;;
18879;SDS011;9572;52.378;13.404;2023-12-07T08:34:39;36.60;;;18.17;;
18879;SDS011;9572;52.378;13.404;2023-12-07T08:37:06;35.13;;;17.77;;
18879;SDS011;9572;52.378;13.404;2023-12-07T08:39:33;36.43;;;18.73;;
18879;SDS011;9572;52.378;13.404;2023-12-07T08:42:00;36.43;;;18.10;;
18879;SDS011;9572;52.378;13.404;2023-12-07T08:44:27;35.93;;;17.83;;
18879;SDS011;9572;52.378;13.404;2023-12-07T08:46:55;31.50;;;16.70;;
18879;SDS011;9572;52.378;13.404;2023-12-07T08:49:22;33.17;;;18.13;;
18879;SDS011;9572;52.378;13.404;2023-12-07T08:51:51;38.60;;;19.17;;
18879;SDS011;9572;52.378;13.404;2023-12-07T08:54:18;34.27;;;18.80;;
18879;SDS011;9572;52.378;13.404;2023-12-07T08:56:45;38.80;;;17.97;;
18879;SDS011;9572;52.378;13.404;2023-12-07T08:59:12;35.53;;;18.33;;
18879;SDS011;9572;52.378;13.404;2023-12-07T09:01:39;38.30;;;18.50;;
18879;SDS011;9572;52.378;13.404;2023-12-07T09:04:07;36.40;;;19.40;;
18879;SDS011;9572;52.378;13.404;2023-12-07T09:06:35;39.63;;;19.60;;
18879;SDS011;9572;52.378;13.404;2023-12-07T09:09:02;38.77;;;19.20;;
18879;SDS011;9572;52.378;13.404;2023-12-07T09:11:30;42.50;;;20.50;;
18879;SDS011;9572;52.378;13.404;2023-12-07T09:13:57;38.10;;;20.10;;
18879;SDS011;9572;52.378;13.404;2023-12-07T09:16:26;36.27;;;19.17;;
18879;SDS011;9572;52.378;13.404;2023-12-07T09:18:53;38.23;;;19.90;;
18879;SDS011;9572;52.378;13.404;2023-12-07T09:21:22;41.83;;;19.90;;
18879;SDS011;9572;52.378;13.404;2023-12-07T09:23:50;38.93;;;19.20;;
18879;SDS011;9572;52.378;13.404;2023-12-07T09:26:17;38.37;;;19.33;;
18879;SDS011;9572;52.378;13.404;2023-12-07T09:28:44;39.67;;;18.00;;
18879;SDS011;9572;52.378;13.404;2023-12-07T09:31:11;41.37;;;20.13;;
18879;SDS011;9572;52.378;13.404;2023-12-07T09:33:38;38.03;;;18.73;;
18879;SDS011;9572;52.378;13.404;2023-12-07T09:36:05;35.67;;;18.43;;
18879;SDS011;9572;52.378;13.404;2023-12-07T09:38:36;36.90;;;18.70;;
18879;SDS011;9572;52.378;13.404;2023-12-07T09:41:03;40.13;;;20.23;;
18879;SDS011;9572;52.378;13.404;2023-12-07T09:43:30;34.80;;;19.20;;
18879;SDS011;9572;52.378;13.404;2023-12-07T09:45:57;41.73;;;20.57;;
18879;SDS011;9572;52.378;13.404;2023-12-07T09:48:24;42.60;;;20.63;;
18879;SDS011;9572;52.378;13.404;2023-12-07T09:50:52;43.85;;;21.25;;
18879;SDS011;9572;52.378;13.404;2023-12-07T09:53:21;38.17;;;19.63;;
18879;SDS011;9572;52.378;13.404;2023-12-07T09:55:50;45.53;;;20.47;;
18879;SDS011;9572;52.378;13.404;2023-12-07T09:58:17;48.20;;;22.30;;
18879;SDS011;9572;52.378;13.404;2023-12-07T10:00:44;45.63;;;20.93;;
18879;SDS011;9572;52.378;13.404;2023-12-07T10:03:19;42.93;;;20.57;;
18879;SDS011;9572;52.378;13.404;2023-12-07T10:05:53;42.03;;;20.10;;
18879;SDS011;9572;52.378;13.404;2023-12-07T10:08:28;43.97;;;20.93;;
18879;SDS011;9572;52.378;13.404;2023-12-07T10:11:04;44.07;;;20.33;;
18879;SDS011;9572;52.378;13.404;2023-12-07T10:13:33;48.53;;;22.13;;
18879;SDS011;9572;52.378;13.404;2023-12-07T10:16:07;40.53;;;19.37;;
18879;SDS011;9572;52.378;13.404;2023-12-07T10:18:36;42.17;;;20.57;;
18879;SDS011;9572;52.378;13.404;2023-12-07T10:21:05;45.13;;;21.37;;
18879;SDS011;9572;52.378;13.404;2023-12-07T10:23:34;45.40;;;20.27;;
18879;SDS011;9572;52.378;13.404;2023-12-07T10:26:01;39.20;;;19.97;;
18879;SDS011;9572;52.378;13.404;2023-12-07T10:28:30;43.57;;;20.03;;
18879;SDS011;9572;52.378;13.404;2023-12-07T10:30:57;40.73;;;19.40;;
18879;SDS011;9572;52.378;13.404;2023-12-07T10:33:25;43.37;;;20.60;;
18879;SDS011;9572;52.378;13.404;2023-12-07T10:35:52;39.87;;;19.57;;
18879;SDS011;9572;52.378;13.404;2023-12-07T10:38:21;43.27;;;21.07;;
18879;SDS011;9572;52.378;13.404;2023-12-07T10:40:48;40.07;;;19.40;;
18879;SDS011;9572;52.378;13.404;2023-12-07T10:43:22;45.07;;;20.37;;
18879;SDS011;9572;52.378;13.404;2023-12-07T10:45:51;37.03;;;18.27;;
18879;SDS011;9572;52.378;13.404;2023-12-07T10:48:19;49.60;;;26.38;;
18879;SDS011;9572;52.378;13.404;2023-12-07T10:50:47;46.80;;;24.75;;
18879;SDS011;9572;52.378;13.404;2023-12-07T10:53:21;44.20;;;22.70;;
18879;SDS011;9572;52.378;13.404;2023-12-07T10:55:52;44.43;;;22.70;;
18879;SDS011;9572;52.378;13.404;2023-12-07T10:58:22;40.40;;;20.03;;
18879;SDS011;9572;52.378;13.404;2023-12-07T11:00:53;42.13;;;20.43;;
18879;SDS011;9572;52.378;13.404;2023-12-07T11:03:21;42.17;;;20.53;;
18879;SDS011;9572;52.378;13.404;2023-12-07T11:05:49;43.47;;;20.27;;
18879;SDS011;9572;52.378;13.404;2023-12-07T11:08:19;46.40;;;22.13;;
18879;SDS011;9572;52.378;13.404;2023-12-07T11:10:53;40.57;;;19.53;;
18879;SDS011;9572;52.378;13.404;2023-12-07T11:13:29;39.43;;;19.93;;
18879;SDS011;9572;52.378;13.404;2023-12-07T11:15:59;42.03;;;20.07;;
18879;SDS011;9572;52.378;13.404;2023-12-07T11:18:27;44.10;;;20.57;;
18879;SDS011;9572;52.378;13.404;2023-12-07T11:20:54;44.70;;;21.53;;
18879;SDS011;9572;52.378;13.404;2023-12-07T11:23:22;42.07;;;19.37;;
18879;SDS011;9572;52.378;13.404;2023-12-07T11:25:49;39.30;;;18.80;;
18879;SDS011;9572;52.378;13.404;2023-12-07T11:28:18;41.73;;;20.50;;
18879;SDS011;9572;52.378;13.404;2023-12-07T11:31:02;42.47;;;21.10;;
18879;SDS011;9572;52.378;13.404;2023-12-07T11:33:31;41.57;;;20.20;;
18879;SDS011;9572;52.378;13.404;2023-12-07T11:36:05;41.63;;;19.37;;
18879;SDS011;9572;52.378;13.404;2023-12-07T11:38:33;41.13;;;20.43;;
18879;SDS011;9572;52.378;13.404;2023-12-07T11:41:01;45.30;;;21.27;;
18879;SDS011;9572;52.378;13.404;2023-12-07T11:43:41;43.93;;;20.80;;
18879;SDS011;9572;52.378;13.404;2023-12-07T11:46:13;41.57;;;20.07;;
18879;SDS011;9572;52.378;13.404;2023-12-07T11:48:48;38.13;;;18.77;;
18879;SDS011;9572;52.378;13.404;2023-12-07T11:51:16;41.33;;;20.17;;
18879;SDS011;9572;52.378;13.404;2023-12-07T11:53:43;43.33;;;20.20;;
18879;SDS011;9572;52.378;13.404;2023-12-07T11:56:11;43.33;;;20.07;;
18879;SDS011;9572;52.378;13.404;2023-12-07T11:58:38;42.47;;;20.53;;
18879;SDS011;9572;52.378;13.404;2023-12-07T12:01:06;42.57;;;20.87;;
18879;SDS011;9572;52.378;13.404;2023-12-07T12:03:34;44.47;;;20.97;;
18879;SDS011;9572;52.378;13.404;2023-12-07T12:06:02;41.10;;;19.70;;
18879;SDS011;9572;52.378;13.404;2023-12-07T12:08:31;49.50;;;21.47;;
18879;SDS011;9572;52.378;13.404;2023-12-07T12:10:58;43.20;;;21.70;;
18879;SDS011;9572;52.378;13.404;2023-12-07T12:13:26;43.07;;;21.93;;
18879;SDS011;9572;52.378;13.404;2023-12-07T12:15:54;44.30;;;21.47;;
18879;SDS011;9572;52.378;13.404;2023-12-07T12:18:22;41.60;;;20.20;;
18879;SDS011;9572;52.378;13.404;2023-12-07T12:20:53;43.33;;;20.70;;
18879;SDS011;9572;52.378;13.404;2023-12-07T12:23:22;42.20;;;20.80;;
18879;SDS011;9572;52.378;13.404;2023-12-07T12:25:49;41.97;;;20.43;;
18879;SDS011;9572;52.378;13.404;2023-12-07T12:28:17;46.33;;;22.20;;
18879;SDS011;9572;52.378;13.404;2023-12-07T12:30:47;46.87;;;22.63;;
18879;SDS011;9572;52.378;13.404;2023-12-07T12:33:14;50.13;;;22.07;;
18879;SDS011;9572;52.378;13.404;2023-12-07T12:35:41;43.13;;;20.37;;
18879;SDS011;9572;52.378;13.404;2023-12-07T12:38:11;41.53;;;21.20;;
18879;SDS011;9572;52.378;13.404;2023-12-07T12:40:38;48.20;;;22.83;;
18879;SDS011;9572;52.378;13.404;2023-12-07T12:43:06;47.93;;;23.10;;
18879;SDS011;9572;52.378;13.404;2023-12-07T12:45:34;44.97;;;21.07;;
18879;SDS011;9572;52.378;13.404;2023-12-07T12:48:01;52.07;;;22.90;;
18879;SDS011;9572;52.378;13.404;2023-12-07T12:50:34;49.30;;;22.10;;
18879;SDS011;9572;52.378;13.404;2023-12-07T12:53:03;59.70;;;30.77;;
18879;SDS011;9572;52.378;13.404;2023-12-07T12:55:37;54.73;;;25.30;;
18879;SDS011;9572;52.378;13.404;2023-12-07T12:58:05;54.50;;;24.37;;
18879;SDS011;9572;52.378;13.404;2023-12-07T13:00:39;48.40;;;23.03;;
18879;SDS011;9572;52.378;13.404;2023-12-07T13:03:08;53.40;;;24.47;;
18879;SDS011;9572;52.378;13.404;2023-12-07T13:05:37;58.77;;;27.80;;
18879;SDS011;9572;52.378;13.404;2023-12-07T13:08:04;65.87;;;27.67;;
18879;SDS011;9572;52.378;13.404;2023-12-07T13:10:36;57.30;;;26.17;;
18879;SDS011;9572;52.378;13.404;2023-12-07T13:13:03;67.63;;;29.90;;
18879;SDS011;9572;52.378;13.404;2023-12-07T13:15:32;61.20;;;27.23;;
18879;SDS011;9572;52.378;13.404;2023-12-07T13:18:02;60.00;;;27.50;;
18879;SDS011;9572;52.378;13.404;2023-12-07T13:20:31;57.97;;;25.77;;
18879;SDS011;9572;52.378;13.404;2023-12-07T13:23:01;60.72;;;31.48;;
18879;SDS011;9572;52.378;13.404;2023-12-07T13:25:47;59.40;;;27.57;;
18879;SDS011;9572;52.378;13.404;2023-12-07T13:28:14;55.57;;;26.63;;
18879;SDS011;9572;52.378;13.404;2023-12-07T13:30:41;52.53;;;24.73;;
18879;SDS011;9572;52.378;13.404;2023-12-07T13:33:08;53.77;;;24.27;;
18879;SDS011;9572;52.378;13.404;2023-12-07T13:35:35;55.10;;;24.27;;
18879;SDS011;9572;52.378;13.404;2023-12-07T13:38:02;54.43;;;24.93;;
18879;SDS011;9572;52.378;13.404;2023-12-07T13:40:30;54.13;;;24.13;;
18879;SDS011;9572;52.378;13.404;2023-12-07T13:42:59;50.47;;;23.47;;
18879;SDS011;9572;52.378;13.404;2023-12-07T13:45:26;55.80;;;25.23;;
18879;SDS011;9572;52.378;13.404;2023-12-07T13:47:53;49.17;;;22.50;;
18879;SDS011;9572;52.378;13.404;2023-12-07T13:50:20;53.00;;;23.77;;
18879;SDS011;9572;52.378;13.404;2023-12-07T13:52:47;52.70;;;24.10;;
18879;SDS011;9572;52.378;13.404;2023-12-07T13:55:14;54.63;;;24.50;;
18879;SDS011;9572;52.378;13.404;2023-12-07T13:57:41;50.07;;;22.43;;
18879;SDS011;9572;52.378;13.404;2023-12-07T14:00:10;55.37;;;23.30;;
18879;SDS011;9572;52.378;13.404;2023-12-07T14:02:38;55.97;;;24.57;;
18879;SDS011;9572;52.378;13.404;2023-12-07T14:05:07;52.83;;;23.07;;
18879;SDS011;9572;52.378;13.404;2023-12-07T14:07:34;57.73;;;25.07;;
18879;SDS011;9572;52.378;13.404;2023-12-07T14:10:00;56.13;;;24.00;;
18879;SDS011;9572;52.378;13.404;2023-12-07T14:12:28;60.23;;;23.80;;
18879;SDS011;9572;52.378;13.404;2023-12-07T14:14:55;65.97;;;26.53;;
18879;SDS011;9572;52.378;13.404;2023-12-07T14:17:23;65.50;;;26.17;;
18879;SDS011;9572;52.378;13.404;2023-12-07T14:19:50;66.87;;;24.93;;
18879;SDS011;9572;52.378;13.404;2023-12-07T14:22:18;62.33;;;24.87;;
18879;SDS011;9572;52.378;13.404;2023-12-07T14:24:45;68.30;;;25.93;;
18879;SDS011;9572;52.378;13.404;2023-12-07T14:27:12;58.47;;;24.43;;
18879;SDS011;9572;52.378;13.404;2023-12-07T14:29:40;54.83;;;24.23;;